Time,TemperatureF,DewpointF,PressureIn,WindDirection,WindDirectionDegrees,WindSpeedMPH,WindSpeedGustMPH,Humidity,HourlyPrecipIn,Conditions,Clouds,dailyrainin,SoftwareType,DateUTC
2013-03-23 00:03:00,77.0,-99.9,30.01,West,270,4.0,4.0,-999,-99.99,,,-99.99,,2013-03-23 04:03:00,
2013-03-23 00:13:00,77.0,-99.9,30.01,West,270,4.0,4.0,-999,-99.99,,,-99.99,,2013-03-23 04:13:00,
2013-03-23 00:23:00,77.0,-99.9,30.01,West,270,4.0,4.0,-999,-99.99,,,-99.99,,2013-03-23 04:23:00,
2013-03-23 00:33:00,78.0,-99.9,30.00,West,280,4.0,7.0,-999,-99.99,,,-99.99,,2013-03-23 04:33:00,
2013-03-23 00:43:00,78.0,-99.9,30.00,West,280,4.0,7.0,-999,-99.99,,,-99.99,,2013-03-23 04:43:00,
2013-03-23 00:53:00,78.0,-99.9,30.00,West,280,4.0,7.0,-999,-99.99,,,-99.99,,2013-03-23 04:53:00,
2013-03-23 01:02:00,77.0,-99.9,30.00,NW,310,9.0,11.0,-999,-99.99,,,-99.99,,2013-03-23 05:02:00,
2013-03-23 01:12:00,77.0,-99.9,30.00,NW,310,9.0,11.0,-999,-99.99,,,-99.99,,2013-03-23 05:12:00,
2013-03-23 01:22:00,77.0,-99.9,30.00,NW,310,9.0,11.0,-999,-99.99,,,-99.99,,2013-03-23 05:22:00,
2013-03-23 01:33:00,78.0,-99.9,29.98,WNW,300,4.0,7.0,-999,-99.99,,,-99.99,,2013-03-23 05:33:00,
2013-03-23 01:42:00,78.0,-99.9,29.98,WNW,300,4.0,7.0,-999,-99.99,,,-99.99,,2013-03-23 05:42:00,
2013-03-23 01:53:00,78.0,-99.9,29.98,WNW,300,4.0,7.0,-999,-99.99,,,-99.99,,2013-03-23 05:53:00,
2013-03-23 02:02:00,78.0,-99.9,29.98,East,90,4.0,7.0,-999,-99.99,,,-99.99,,2013-03-23 06:02:00,
2013-03-23 02:12:00,78.0,-99.9,29.98,East,90,4.0,7.0,-999,-99.99,,,-99.99,,2013-03-23 06:12:00,
2013-03-23 02:22:00,78.0,-99.9,29.98,East,90,4.0,7.0,-999,-99.99,,,-99.99,,2013-03-23 06:22:00,
2013-03-23 02:32:00,78.0,-99.9,29.97,ESE,120,4.0,7.0,-999,-99.99,,,-99.99,,2013-03-23 06:32:00,
2013-03-23 02:42:00,78.0,-99.9,29.97,ESE,120,4.0,7.0,-999,-99.99,,,-99.99,,2013-03-23 06:42:00,
2013-03-23 02:52:00,78.0,-99.9,29.97,ESE,120,4.0,7.0,-999,-99.99,,,-99.99,,2013-03-23 06:52:00,
2013-03-23 03:03:00,78.0,-99.9,29.96,SE,130,4.0,4.0,-999,-99.99,,,-99.99,,2013-03-23 07:03:00,
2013-03-23 03:12:00,78.0,-99.9,29.96,SE,130,4.0,4.0,-999,-99.99,,,-99.99,,2013-03-23 07:12:00,
2013-03-23 03:23:00,78.0,-99.9,29.96,SE,130,4.0,4.0,-999,-99.99,,,-99.99,,2013-03-23 07:23:00,
2013-03-23 03:33:00,78.0,-99.9,29.96,ESE,120,2.0,4.0,-999,-99.99,,,-99.99,,2013-03-23 07:33:00,
2013-03-23 03:42:00,78.0,-99.9,29.96,ESE,120,2.0,4.0,-999,-99.99,,,-99.99,,2013-03-23 07:42:00,
2013-03-23 03:52:00,78.0,-99.9,29.96,ESE,120,2.0,4.0,-999,-99.99,,,-99.99,,2013-03-23 07:52:00,
2013-03-23 04:03:00,78.0,-99.9,29.96,East,90,4.0,7.0,-999,-99.99,,,-99.99,,2013-03-23 08:03:00,
2013-03-23 04:13:00,78.0,-99.9,29.96,East,90,4.0,7.0,-999,-99.99,,,-99.99,,2013-03-23 08:13:00,
2013-03-23 04:23:00,78.0,-99.9,29.96,East,90,4.0,7.0,-999,-99.99,,,-99.99,,2013-03-23 08:23:00,
2013-03-23 04:32:00,78.0,-99.9,29.96,East,100,4.0,7.0,-999,-99.99,,,-99.99,,2013-03-23 08:32:00,
2013-03-23 04:42:00,78.0,-99.9,29.96,East,100,4.0,7.0,-999,-99.99,,,-99.99,,2013-03-23 08:42:00,
2013-03-23 04:53:00,78.0,-99.9,29.96,East,100,4.0,7.0,-999,-99.99,,,-99.99,,2013-03-23 08:53:00,
2013-03-23 05:02:00,78.0,-99.9,29.96,ESE,120,4.0,7.0,-999,-99.99,,,-99.99,,2013-03-23 09:02:00,
2013-03-23 05:12:00,78.0,-99.9,29.96,ESE,120,4.0,7.0,-999,-99.99,,,-99.99,,2013-03-23 09:12:00,
2013-03-23 05:22:00,78.0,-99.9,29.96,ESE,120,4.0,7.0,-999,-99.99,,,-99.99,,2013-03-23 09:22:00,
2013-03-23 05:33:00,78.0,-99.9,29.97,ESE,120,4.0,7.0,-999,-99.99,,,-99.99,,2013-03-23 09:33:00,
2013-03-23 05:43:00,78.0,-99.9,29.97,ESE,120,4.0,7.0,-999,-99.99,,,-99.99,,2013-03-23 09:43:00,
2013-03-23 05:53:00,78.0,-99.9,29.97,ESE,120,4.0,7.0,-999,-99.99,,,-99.99,,2013-03-23 09:53:00,
2013-03-23 06:03:00,78.0,-99.9,29.98,ESE,110,4.0,7.0,-999,-99.99,,,-99.99,,2013-03-23 10:03:00,
2013-03-23 06:13:00,78.0,-99.9,29.98,ESE,110,4.0,7.0,-999,-99.99,,,-99.99,,2013-03-23 10:13:00,
2013-03-23 06:24:00,78.0,-99.9,29.98,ESE,110,4.0,7.0,-999,-99.99,,,-99.99,,2013-03-23 10:24:00,
2013-03-23 06:34:00,78.0,-99.9,29.98,East,100,7.0,9.0,-999,-99.99,,,-99.99,,2013-03-23 10:34:00,
2013-03-23 06:43:00,78.0,-99.9,29.98,East,100,7.0,9.0,-999,-99.99,,,-99.99,,2013-03-23 10:43:00,
2013-03-23 06:53:00,78.0,-99.9,29.98,East,100,7.0,9.0,-999,-99.99,,,-99.99,,2013-03-23 10:53:00,
2013-03-23 07:03:00,78.0,-99.9,29.99,East,100,7.0,9.0,-999,-99.99,,,-99.99,,2013-03-23 11:03:00,
2013-03-23 07:12:00,78.0,-99.9,29.99,East,100,7.0,9.0,-999,-99.99,,,-99.99,,2013-03-23 11:12:00,
2013-03-23 07:22:00,78.0,-99.9,29.99,East,100,7.0,9.0,-999,-99.99,,,-99.99,,2013-03-23 11:22:00,
2013-03-23 07:32:00,78.0,-99.9,30.01,East,90,7.0,7.0,-999,-99.99,,,-99.99,,2013-03-23 11:32:00,
2013-03-23 07:42:00,78.0,-99.9,30.01,East,90,7.0,7.0,-999,-99.99,,,-99.99,,2013-03-23 11:42:00,
2013-03-23 07:52:00,78.0,-99.9,30.01,East,90,7.0,7.0,-999,-99.99,,,-99.99,,2013-03-23 11:52:00,
2013-03-23 08:02:00,79.0,-99.9,30.01,ESE,110,7.0,9.0,-999,-99.99,,,-99.99,,2013-03-23 12:02:00,
2013-03-23 08:13:00,79.0,-99.9,30.01,ESE,110,7.0,9.0,-999,-99.99,,,-99.99,,2013-03-23 12:13:00,
2013-03-23 08:22:00,79.0,-99.9,30.01,ESE,110,7.0,9.0,-999,-99.99,,,-99.99,,2013-03-23 12:22:00,
2013-03-23 08:33:00,80.0,-99.9,30.02,East,80,11.0,13.0,-999,-99.99,,,-99.99,,2013-03-23 12:33:00,
2013-03-23 08:43:00,80.0,-99.9,30.02,East,80,11.0,13.0,-999,-99.99,,,-99.99,,2013-03-23 12:43:00,
2013-03-23 08:53:00,80.0,-99.9,30.02,East,80,11.0,13.0,-999,-99.99,,,-99.99,,2013-03-23 12:53:00,
2013-03-23 09:03:00,80.0,-99.9,30.03,East,80,11.0,13.0,-999,-99.99,,,-99.99,,2013-03-23 13:03:00,
2013-03-23 09:12:00,80.0,-99.9,30.03,East,80,11.0,13.0,-999,-99.99,,,-99.99,,2013-03-23 13:12:00,
2013-03-23 09:23:00,80.0,-99.9,30.03,East,80,11.0,13.0,-999,-99.99,,,-99.99,,2013-03-23 13:23:00,
2013-03-23 09:33:00,80.0,-99.9,30.04,East,80,11.0,13.0,-999,-99.99,,,-99.99,,2013-03-23 13:33:00,
2013-03-23 09:43:00,80.0,-99.9,30.04,East,80,11.0,13.0,-999,-99.99,,,-99.99,,2013-03-23 13:43:00,
2013-03-23 09:53:00,80.0,-99.9,30.04,East,80,11.0,13.0,-999,-99.99,,,-99.99,,2013-03-23 13:53:00,
2013-03-23 10:04:00,80.0,-99.9,30.04,ENE,70,11.0,13.0,-999,-99.99,,,-99.99,,2013-03-23 14:04:00,
2013-03-23 10:13:00,80.0,-99.9,30.04,ENE,70,11.0,13.0,-999,-99.99,,,-99.99,,2013-03-23 14:13:00,
2013-03-23 10:23:00,80.0,-99.9,30.04,ENE,70,11.0,13.0,-999,-99.99,,,-99.99,,2013-03-23 14:23:00,
2013-03-23 10:33:00,79.0,-99.9,30.05,East,80,11.0,16.0,-999,-99.99,,,-99.99,,2013-03-23 14:33:00,
2013-03-23 10:43:00,79.0,-99.9,30.05,East,80,11.0,16.0,-999,-99.99,,,-99.99,,2013-03-23 14:43:00,
2013-03-23 10:53:00,79.0,-99.9,30.05,East,80,11.0,16.0,-999,-99.99,,,-99.99,,2013-03-23 14:53:00,
2013-03-23 11:04:00,80.0,-99.9,30.05,ENE,60,13.0,16.0,-999,-99.99,,,-99.99,,2013-03-23 15:04:00,
2013-03-23 11:13:00,80.0,-99.9,30.05,ENE,60,13.0,16.0,-999,-99.99,,,-99.99,,2013-03-23 15:13:00,
2013-03-23 11:23:00,80.0,-99.9,30.05,ENE,60,13.0,16.0,-999,-99.99,,,-99.99,,2013-03-23 15:23:00,
2013-03-23 11:34:00,80.0,-99.9,30.04,ENE,60,13.0,16.0,-999,-99.99,,,-99.99,,2013-03-23 15:34:00,
2013-03-23 11:44:00,80.0,-99.9,30.04,ENE,60,13.0,16.0,-999,-99.99,,,-99.99,,2013-03-23 15:44:00,
2013-03-23 11:53:00,80.0,-99.9,30.04,ENE,60,13.0,16.0,-999,-99.99,,,-99.99,,2013-03-23 15:53:00,
2013-03-23 12:04:00,80.0,-99.9,30.03,ENE,60,13.0,16.0,-999,-99.99,,,-99.99,,2013-03-23 16:04:00,
2013-03-23 12:13:00,80.0,-99.9,30.03,ENE,60,13.0,16.0,-999,-99.99,,,-99.99,,2013-03-23 16:13:00,
2013-03-23 12:23:00,80.0,-99.9,30.03,ENE,60,13.0,16.0,-999,-99.99,,,-99.99,,2013-03-23 16:23:00,
2013-03-23 12:33:00,80.0,-99.9,30.02,ENE,70,13.0,18.0,-999,-99.99,,,-99.99,,2013-03-23 16:33:00,
2013-03-23 12:43:00,80.0,-99.9,30.02,ENE,70,13.0,18.0,-999,-99.99,,,-99.99,,2013-03-23 16:43:00,
2013-03-23 12:54:00,80.0,-99.9,30.02,ENE,70,13.0,18.0,-999,-99.99,,,-99.99,,2013-03-23 16:54:00,
2013-03-23 13:03:00,80.0,-99.9,30.02,ENE,70,13.0,18.0,-999,-99.99,,,-99.99,,2013-03-23 17:03:00,
2013-03-23 13:12:00,80.0,-99.9,30.02,ENE,70,13.0,18.0,-999,-99.99,,,-99.99,,2013-03-23 17:12:00,
2013-03-23 13:23:00,80.0,-99.9,30.02,ENE,70,13.0,18.0,-999,-99.99,,,-99.99,,2013-03-23 17:23:00,
2013-03-23 13:30:00,80.0,-99.9,29.98,ENE,70,13.0,16.0,-999,-99.99,,,-99.99,,2013-03-23 17:30:00,
2013-03-23 13:33:00,80.0,-99.9,30.00,ENE,70,13.0,16.0,-999,-99.99,,,-99.99,,2013-03-23 17:33:00,
2013-03-23 13:43:00,80.0,-99.9,30.00,ENE,70,13.0,16.0,-999,-99.99,,,-99.99,,2013-03-23 17:43:00,
2013-03-23 13:53:00,80.0,-99.9,30.00,ENE,70,13.0,16.0,-999,-99.99,,,-99.99,,2013-03-23 17:53:00,
2013-03-23 14:03:00,80.0,-99.9,29.98,ENE,70,13.0,16.0,-999,-99.99,,,-99.99,,2013-03-23 18:03:00,
2013-03-23 14:12:00,80.0,-99.9,29.98,ENE,70,13.0,16.0,-999,-99.99,,,-99.99,,2013-03-23 18:12:00,
2013-03-23 14:23:00,80.0,-99.9,29.98,ENE,70,13.0,16.0,-999,-99.99,,,-99.99,,2013-03-23 18:23:00,
2013-03-23 14:43:00,80.0,-99.9,29.96,ENE,60,16.0,18.0,-999,-99.99,,,-99.99,,2013-03-23 18:43:00,
2013-03-23 14:53:00,80.0,-99.9,29.96,ENE,60,16.0,18.0,-999,-99.99,,,-99.99,,2013-03-23 18:53:00,
2013-03-23 15:03:00,80.0,-99.9,29.96,ENE,70,16.0,18.0,-999,-99.99,,,-99.99,,2013-03-23 19:03:00,
2013-03-23 15:13:00,80.0,-99.9,29.96,ENE,70,16.0,18.0,-999,-99.99,,,-99.99,,2013-03-23 19:13:00,
2013-03-23 15:23:00,80.0,-99.9,29.96,ENE,70,16.0,18.0,-999,-99.99,,,-99.99,,2013-03-23 19:23:00,
2013-03-23 15:33:00,80.0,-99.9,29.95,ENE,70,16.0,18.0,-999,-99.99,,,-99.99,,2013-03-23 19:33:00,
2013-03-23 15:43:00,80.0,-99.9,29.95,ENE,70,16.0,18.0,-999,-99.99,,,-99.99,,2013-03-23 19:43:00,
2013-03-23 15:53:00,80.0,-99.9,29.95,ENE,70,16.0,18.0,-999,-99.99,,,-99.99,,2013-03-23 19:53:00,
2013-03-23 16:03:00,80.0,-99.9,29.94,ENE,70,16.0,18.0,-999,-99.99,,,-99.99,,2013-03-23 20:03:00,
2013-03-23 16:13:00,80.0,-99.9,29.94,ENE,70,16.0,18.0,-999,-99.99,,,-99.99,,2013-03-23 20:13:00,
2013-03-23 16:23:00,80.0,-99.9,29.94,ENE,70,16.0,18.0,-999,-99.99,,,-99.99,,2013-03-23 20:23:00,
2013-03-23 16:33:00,80.0,-99.9,29.93,East,80,16.0,18.0,-999,-99.99,,,-99.99,,2013-03-23 20:33:00,
2013-03-23 16:43:00,80.0,-99.9,29.93,East,80,16.0,18.0,-999,-99.99,,,-99.99,,2013-03-23 20:43:00,
2013-03-23 16:53:00,80.0,-99.9,29.93,East,80,16.0,18.0,-999,-99.99,,,-99.99,,2013-03-23 20:53:00,
2013-03-23 17:00:00,80.0,-99.9,29.94,East,80,16.0,18.0,-999,-99.99,,,-99.99,,2013-03-23 21:00:00,
2013-03-23 17:03:00,80.0,-99.9,29.93,East,80,16.0,20.0,-999,-99.99,,,-99.99,,2013-03-23 21:03:00,
2013-03-23 17:12:00,80.0,-99.9,29.93,East,80,16.0,20.0,-999,-99.99,,,-99.99,,2013-03-23 21:12:00,
2013-03-23 17:23:00,80.0,-99.9,29.93,East,80,16.0,20.0,-999,-99.99,,,-99.99,,2013-03-23 21:23:00,
2013-03-23 17:33:00,80.0,-99.9,29.94,East,80,16.0,18.0,-999,-99.99,,,-99.99,,2013-03-23 21:33:00,
2013-03-23 17:44:00,80.0,-99.9,29.94,East,80,16.0,18.0,-999,-99.99,,,-99.99,,2013-03-23 21:44:00,
2013-03-23 17:54:00,80.0,-99.9,29.94,East,80,16.0,18.0,-999,-99.99,,,-99.99,,2013-03-23 21:54:00,
2013-03-23 18:33:00,80.0,-99.9,29.94,East,80,16.0,18.0,-999,-99.99,,,-99.99,,2013-03-23 22:33:00,
2013-03-23 18:43:00,80.0,-99.9,29.94,East,80,16.0,18.0,-999,-99.99,,,-99.99,,2013-03-23 22:43:00,
2013-03-23 18:53:00,80.0,-99.9,29.94,East,80,16.0,18.0,-999,-99.99,,,-99.99,,2013-03-23 22:53:00,
2013-03-23 19:03:00,80.0,-99.9,29.95,East,80,16.0,20.0,-999,-99.99,,,-99.99,,2013-03-23 23:03:00,
2013-03-23 19:13:00,80.0,-99.9,29.95,East,80,16.0,20.0,-999,-99.99,,,-99.99,,2013-03-23 23:13:00,
2013-03-23 19:23:00,80.0,-99.9,29.95,East,80,16.0,20.0,-999,-99.99,,,-99.99,,2013-03-23 23:23:00,
2013-03-23 19:33:00,80.0,-99.9,29.96,East,80,16.0,18.0,-999,-99.99,,,-99.99,,2013-03-23 23:33:00,
2013-03-23 19:43:00,80.0,-99.9,29.96,East,80,16.0,18.0,-999,-99.99,,,-99.99,,2013-03-23 23:43:00,
2013-03-23 19:53:00,80.0,-99.9,29.96,East,80,16.0,18.0,-999,-99.99,,,-99.99,,2013-03-23 23:53:00,
2013-03-23 20:02:00,80.0,-99.9,29.96,East,90,13.0,18.0,-999,-99.99,,,-99.99,,2013-03-24 00:02:00,
2013-03-23 20:13:00,80.0,-99.9,29.96,East,90,13.0,18.0,-999,-99.99,,,-99.99,,2013-03-24 00:13:00,
2013-03-23 20:23:00,80.0,-99.9,29.96,East,90,13.0,18.0,-999,-99.99,,,-99.99,,2013-03-24 00:23:00,
2013-03-23 20:33:00,80.0,-99.9,29.97,East,90,13.0,16.0,-999,-99.99,,,-99.99,,2013-03-24 00:33:00,
2013-03-23 20:43:00,80.0,-99.9,29.97,East,90,13.0,16.0,-999,-99.99,,,-99.99,,2013-03-24 00:43:00,
2013-03-23 20:53:00,80.0,-99.9,29.97,East,90,13.0,16.0,-999,-99.99,,,-99.99,,2013-03-24 00:53:00,
2013-03-23 21:02:00,80.0,-99.9,29.98,East,90,13.0,16.0,-999,-99.99,,,-99.99,,2013-03-24 01:02:00,
2013-03-23 21:13:00,80.0,-99.9,29.98,East,90,13.0,16.0,-999,-99.99,,,-99.99,,2013-03-24 01:13:00,
2013-03-23 21:22:00,80.0,-99.9,29.98,East,90,13.0,16.0,-999,-99.99,,,-99.99,,2013-03-24 01:22:00,
2013-03-23 21:33:00,80.0,-99.9,29.98,East,80,13.0,16.0,-999,-99.99,,,-99.99,,2013-03-24 01:33:00,
2013-03-23 21:43:00,80.0,-99.9,29.98,East,80,13.0,16.0,-999,-99.99,,,-99.99,,2013-03-24 01:43:00,
2013-03-23 21:53:00,80.0,-99.9,29.98,East,80,13.0,16.0,-999,-99.99,,,-99.99,,2013-03-24 01:53:00,
2013-03-23 22:03:00,80.0,-99.9,29.99,East,100,11.0,13.0,-999,-99.99,,,-99.99,,2013-03-24 02:03:00,
2013-03-23 22:12:00,80.0,-99.9,29.99,East,100,11.0,13.0,-999,-99.99,,,-99.99,,2013-03-24 02:12:00,
2013-03-23 22:22:00,80.0,-99.9,29.99,East,100,11.0,13.0,-999,-99.99,,,-99.99,,2013-03-24 02:22:00,
2013-03-23 22:32:00,79.0,-99.9,29.99,East,100,11.0,11.0,-999,-99.99,,,-99.99,,2013-03-24 02:32:00,
2013-03-23 22:43:00,79.0,-99.9,29.99,East,100,11.0,11.0,-999,-99.99,,,-99.99,,2013-03-24 02:43:00,
2013-03-23 22:52:00,79.0,-99.9,29.99,East,100,11.0,11.0,-999,-99.99,,,-99.99,,2013-03-24 02:52:00,
2013-03-23 23:03:00,80.0,-99.9,29.99,East,90,11.0,13.0,-999,-99.99,,,-99.99,,2013-03-24 03:03:00,
2013-03-23 23:13:00,80.0,-99.9,29.99,East,90,11.0,13.0,-999,-99.99,,,-99.99,,2013-03-24 03:13:00,
2013-03-23 23:23:00,80.0,-99.9,29.99,East,90,11.0,13.0,-999,-99.99,,,-99.99,,2013-03-24 03:23:00,
2013-03-23 23:33:00,80.0,-99.9,29.98,East,90,11.0,13.0,-999,-99.99,,,-99.99,,2013-03-24 03:33:00,
2013-03-23 23:43:00,80.0,-99.9,29.98,East,90,11.0,13.0,-999,-99.99,,,-99.99,,2013-03-24 03:43:00,
2013-03-23 23:53:00,80.0,-99.9,29.98,East,90,11.0,13.0,-999,-99.99,,,-99.99,,2013-03-24 03:53:00,